createdAt,value
2022-11-12T00:01:58.764Z,5.70
2022-11-12T00:04:27.606Z,7.63
2022-11-12T00:06:58.367Z,7.43
2022-11-12T00:09:27.096Z,548.90
2022-11-12T00:11:56.867Z,5.80
2022-11-12T00:14:25.693Z,5.27
2022-11-12T00:16:54.713Z,5.80
2022-11-12T00:19:23.707Z,5.20
2022-11-12T00:21:52.516Z,5.23
2022-11-12T00:24:23.050Z,5.10
2022-11-12T00:26:51.714Z,7.37
2022-11-12T00:29:20.352Z,4.53
2022-11-12T00:31:48.988Z,4.20
2022-11-12T00:34:19.960Z,5.13
2022-11-12T00:36:49.114Z,6.73
2022-11-12T00:39:17.654Z,7.03
2022-11-12T00:41:47.702Z,5.47
2022-11-12T00:44:16.470Z,6.23
2022-11-12T00:46:45.483Z,5.57
2022-11-12T00:49:17.462Z,6.77
2022-11-12T00:51:46.488Z,6.40
2022-11-12T00:54:15.270Z,5.47
2022-11-12T00:56:44.319Z,6.67
2022-11-12T00:59:17.076Z,5.07
2022-11-12T01:01:46.111Z,4.53
2022-11-12T01:04:14.908Z,5.30
2022-11-12T01:06:44.448Z,4.77
2022-11-12T01:09:13.324Z,4.70
2022-11-12T01:11:43.587Z,5.17
2022-11-12T01:14:14.755Z,5.30
2022-11-12T01:16:45.183Z,5.00
2022-11-12T01:19:14.496Z,4.83
2022-11-12T01:21:45.243Z,4.10
2022-11-12T01:24:14.294Z,4.13
2022-11-12T01:26:43.132Z,4.30
2022-11-12T01:29:13.802Z,4.67
2022-11-12T01:31:44.808Z,5.17
2022-11-12T01:34:13.763Z,4.67
2022-11-12T01:36:43.850Z,5.27
2022-11-12T01:39:13.201Z,5.63
2022-11-12T01:41:43.217Z,5.13
2022-11-12T01:44:15.295Z,4.37
2022-11-12T01:46:58.762Z,4.60
2022-11-12T01:49:32.739Z,4.57
2022-11-12T01:52:12.392Z,4.03
2022-11-12T01:54:42.162Z,5.33
2022-11-12T01:57:14.314Z,5.13
2022-11-12T01:59:47.068Z,5.37
2022-11-12T02:02:20.835Z,4.53
2022-11-12T02:04:51.795Z,3.90
2022-11-12T02:07:21.620Z,4.13
2022-11-12T02:09:50.424Z,3.63
2022-11-12T02:12:34.326Z,3.77
2022-11-12T02:15:03.187Z,4.87
2022-11-12T02:17:33.429Z,4.47
2022-11-12T02:20:02.937Z,4.50
2022-11-12T02:22:33.021Z,4.10
2022-11-12T02:25:01.837Z,4.10
2022-11-12T02:27:30.877Z,4.47
2022-11-12T02:30:00.887Z,5.00
2022-11-12T02:32:33.499Z,4.13
2022-11-12T02:35:01.970Z,4.10
2022-11-12T02:37:34.670Z,3.97
2022-11-12T02:40:03.581Z,3.27
2022-11-12T02:42:32.032Z,3.37
2022-11-12T02:45:08.430Z,3.13
2022-11-12T02:47:36.977Z,3.37
2022-11-12T02:50:06.511Z,3.40
2022-11-12T02:52:36.707Z,3.17
2022-11-12T02:55:09.398Z,3.30
2022-11-12T02:57:39.157Z,3.37
2022-11-12T03:00:11.400Z,3.80
2022-11-12T03:02:59.328Z,3.03
2022-11-12T03:05:28.986Z,2.63
2022-11-12T03:08:00.280Z,3.13
2022-11-12T03:10:31.528Z,2.80
2022-11-12T03:13:01.588Z,2.90
2022-11-12T03:15:31.696Z,2.93
2022-11-12T03:18:01.219Z,3.83
2022-11-12T03:20:31.938Z,3.07
2022-11-12T03:23:03.673Z,6.73
2022-11-12T03:25:32.681Z,3.57
2022-11-12T03:28:02.286Z,4.60
2022-11-12T03:30:33.675Z,3.47
2022-11-12T03:33:02.641Z,3.77
2022-11-12T03:35:32.175Z,3.60
2022-11-12T03:38:02.965Z,3.87
2022-11-12T03:40:32.436Z,3.77
2022-11-12T03:43:01.057Z,3.70
2022-11-12T03:45:35.003Z,3.43
2022-11-12T03:48:03.502Z,3.33
2022-11-12T03:50:32.203Z,3.53
2022-11-12T03:53:02.273Z,3.67
2022-11-12T03:55:31.634Z,3.30
2022-11-12T03:58:00.269Z,4.07
2022-11-12T04:00:30.203Z,3.93
2022-11-12T04:02:59.291Z,3.70
2022-11-12T04:05:46.387Z,4.13
2022-11-12T04:08:35.124Z,3.67
2022-11-12T04:11:04.795Z,4.50
2022-11-12T04:13:33.911Z,4.30
2022-11-12T04:16:22.360Z,3.97
2022-11-12T04:19:10.228Z,3.93
2022-11-12T04:21:52.273Z,3.80
2022-11-12T04:24:44.881Z,3.30
2022-11-12T04:27:15.903Z,3.57
2022-11-12T04:30:02.482Z,3.40
2022-11-12T04:32:31.834Z,3.83
2022-11-12T04:35:01.486Z,3.83
2022-11-12T04:37:44.601Z,3.80
2022-11-12T04:40:34.769Z,3.37
2022-11-12T04:43:21.115Z,3.50
2022-11-12T04:45:52.072Z,3.43
2022-11-12T04:48:22.083Z,3.93
2022-11-12T04:50:55.110Z,4.03
2022-11-12T04:53:23.696Z,4.83
2022-11-12T04:55:54.236Z,3.20
2022-11-12T04:58:23.987Z,4.17
2022-11-12T05:00:52.981Z,3.37
2022-11-12T05:03:21.609Z,774.93
2022-11-12T05:05:50.135Z,3.77
2022-11-12T05:08:18.930Z,3.97
2022-11-12T05:10:47.491Z,3.67
2022-11-12T05:13:17.388Z,5.87
2022-11-12T05:15:45.933Z,5.13
2022-11-12T05:18:14.506Z,38.27
2022-11-12T05:20:43.003Z,7.67
2022-11-12T05:23:11.629Z,3.30
2022-11-12T05:25:40.546Z,6.03
2022-11-12T05:28:09.070Z,695.37
2022-11-12T05:30:38.933Z,9.37
2022-11-12T05:33:07.409Z,4.73
2022-11-12T05:35:35.938Z,6.17
2022-11-12T05:38:04.437Z,2.80
2022-11-12T05:40:33.275Z,3.70
2022-11-12T05:43:01.793Z,5.33
2022-11-12T05:45:30.213Z,2.77
2022-11-12T05:48:00.232Z,3.00
2022-11-12T05:50:39.856Z,133.20
2022-11-12T05:53:13.840Z,847.53
2022-11-12T05:55:42.395Z,4.10
2022-11-12T05:58:11.299Z,999.90
2022-11-12T06:00:40.226Z,473.87
2022-11-12T06:03:11.151Z,38.47
2022-11-12T06:05:39.690Z,33.07
2022-11-12T06:08:08.659Z,4.87
2022-11-12T06:10:37.410Z,3.10
2022-11-12T06:13:05.932Z,5.80
2022-11-12T06:15:39.186Z,2.93
2022-11-12T06:18:10.091Z,999.90
2022-11-12T06:20:38.653Z,999.90
2022-11-12T06:23:07.425Z,3.73
2022-11-12T06:25:36.924Z,999.90
2022-11-12T06:28:05.659Z,999.90
2022-11-12T06:30:34.189Z,5.90
2022-11-12T06:33:02.721Z,999.90
2022-11-12T06:35:33.006Z,39.00
2022-11-12T06:38:01.499Z,24.17
2022-11-12T06:40:30.058Z,999.90
2022-11-12T06:42:59.148Z,999.90
2022-11-12T06:45:27.942Z,999.90
2022-11-12T06:47:59.716Z,3.27
2022-11-12T06:50:28.215Z,999.90
2022-11-12T06:53:01.252Z,11.27
2022-11-12T06:55:30.067Z,999.90
2022-11-12T06:57:58.758Z,550.30
2022-11-12T07:00:27.724Z,992.27
2022-11-12T07:02:56.235Z,999.90
2022-11-12T07:05:25.049Z,3.50
2022-11-12T07:07:53.594Z,6.00
2022-11-12T07:10:23.522Z,111.40
2022-11-12T07:12:54.871Z,682.93
2022-11-12T07:15:23.719Z,8.17
2022-11-12T07:17:52.211Z,999.90
2022-11-12T07:20:20.777Z,999.90
2022-11-12T07:22:49.320Z,496.60
2022-11-12T07:25:17.992Z,5.43
2022-11-12T07:27:47.904Z,6.27
2022-11-12T07:30:17.168Z,7.07
2022-11-12T07:32:49.561Z,999.90
2022-11-12T07:35:20.411Z,4.33
2022-11-12T07:37:48.960Z,936.10
2022-11-12T07:40:18.054Z,6.30
2022-11-12T07:42:48.066Z,785.27
2022-11-12T07:45:16.800Z,999.90
2022-11-12T07:47:45.367Z,999.90
2022-11-12T07:50:13.985Z,936.80
2022-11-12T07:52:42.608Z,906.63
2022-11-12T07:55:11.769Z,999.90
2022-11-12T07:57:40.281Z,866.50
2022-11-12T08:00:12.495Z,3.93
2022-11-12T08:02:41.101Z,614.90
2022-11-12T08:05:16.368Z,999.90
2022-11-12T08:07:47.514Z,999.90
2022-11-12T08:10:16.525Z,999.90
2022-11-12T08:12:45.463Z,999.90
2022-11-12T08:15:15.647Z,999.90
2022-11-12T08:17:44.336Z,999.90
2022-11-12T08:20:13.757Z,999.90
2022-11-12T08:22:46.480Z,5.63
2022-11-12T08:25:19.124Z,999.90
2022-11-12T08:27:48.179Z,9.87
2022-11-12T08:30:18.386Z,364.33
2022-11-12T08:32:46.912Z,926.13
2022-11-12T08:35:15.690Z,506.47
2022-11-12T08:37:44.556Z,999.90
2022-11-12T08:40:14.271Z,290.80
2022-11-12T08:42:42.954Z,47.40
2022-11-12T08:45:12.186Z,7.87
2022-11-12T08:47:42.610Z,6.50
2022-11-12T08:50:11.680Z,258.40
2022-11-12T08:52:40.324Z,8.10
2022-11-12T08:55:10.061Z,27.17
2022-11-12T08:57:42.647Z,999.90
2022-11-12T09:00:12.904Z,999.90
2022-11-12T09:02:43.288Z,8.43
2022-11-12T09:05:15.684Z,62.17
2022-11-12T09:07:49.869Z,399.07
2022-11-12T09:10:19.749Z,999.90
2022-11-12T09:12:53.007Z,999.90
2022-11-12T09:15:38.593Z,999.90
2022-11-12T09:18:13.511Z,999.90
2022-11-12T09:20:42.390Z,984.37
2022-11-12T09:23:13.682Z,9.13
2022-11-12T09:25:43.221Z,999.90
2022-11-12T09:28:13.100Z,34.00
2022-11-12T09:30:46.679Z,999.90
2022-11-12T09:33:17.424Z,999.90
2022-11-12T09:35:46.931Z,999.90
2022-11-12T09:38:16.674Z,999.90
2022-11-12T09:41:02.797Z,999.90
2022-11-12T09:43:33.837Z,999.90
2022-11-12T09:46:27.101Z,377.43
2022-11-12T09:49:04.939Z,999.90
2022-11-12T09:51:37.348Z,999.90
2022-11-12T09:54:15.162Z,999.90
2022-11-12T09:56:43.754Z,293.30
2022-11-12T09:59:14.355Z,999.90
2022-11-12T10:01:59.160Z,999.90
2022-11-12T10:04:53.187Z,22.63
2022-11-12T10:07:31.032Z,10.60
2022-11-12T10:10:05.540Z,907.70
2022-11-12T10:12:46.965Z,949.97
2022-11-12T10:16:00.845Z,999.90
2022-11-12T10:18:38.894Z,999.90
2022-11-12T10:21:16.382Z,63.87
2022-11-12T10:23:47.585Z,984.03
2022-11-12T10:26:17.612Z,999.90
2022-11-12T10:28:49.826Z,999.90
2022-11-12T10:31:20.527Z,8.40
2022-11-12T10:33:49.666Z,999.90
2022-11-12T10:36:27.999Z,914.97
2022-11-12T10:38:57.277Z,999.90
2022-11-12T10:41:28.693Z,999.90
2022-11-12T10:43:59.831Z,998.40
2022-11-12T10:46:30.860Z,999.90
2022-11-12T10:49:03.355Z,999.90
2022-11-12T10:51:36.257Z,980.87
2022-11-12T10:54:29.201Z,937.67
2022-11-12T10:56:57.977Z,984.37
2022-11-12T10:59:27.501Z,787.67
2022-11-12T11:01:58.304Z,925.73
2022-11-12T11:04:32.775Z,835.80
2022-11-12T11:07:08.198Z,784.53
2022-11-12T11:09:36.835Z,827.23
2022-11-12T11:12:09.837Z,852.90
2022-11-12T11:14:40.221Z,765.53
2022-11-12T11:17:18.072Z,853.10
2022-11-12T11:19:46.759Z,823.63
2022-11-12T11:22:30.713Z,664.33
2022-11-12T11:25:20.334Z,698.43
2022-11-12T11:28:04.799Z,819.80
2022-11-12T11:30:36.523Z,623.23
2022-11-12T11:33:35.755Z,618.37
2022-11-12T11:36:18.150Z,486.77
2022-11-12T11:38:58.518Z,683.20
2022-11-12T11:41:41.729Z,549.77
2022-11-12T11:44:22.379Z,435.63
2022-11-12T11:47:00.477Z,130.50
2022-11-12T11:49:56.531Z,754.77
2022-11-12T11:52:40.914Z,889.93
2022-11-12T11:55:29.090Z,4.57
2022-11-12T11:58:07.120Z,4.10
2022-11-12T12:00:47.130Z,3.87
2022-11-12T12:03:21.555Z,3.60
2022-11-12T12:06:09.796Z,2.93
2022-11-12T12:08:53.626Z,3.90
2022-11-12T12:11:29.146Z,3.30
2022-11-12T12:14:09.045Z,4.10
2022-11-12T12:16:54.467Z,5.63
2022-11-12T12:19:43.007Z,4.63
2022-11-12T12:22:16.784Z,4.50
2022-11-12T12:24:50.881Z,4.83
2022-11-12T12:27:25.783Z,4.23
2022-11-12T12:29:57.710Z,4.17
2022-11-12T12:32:31.025Z,4.20
2022-11-12T12:35:05.212Z,3.97
2022-11-12T12:37:40.811Z,3.87
2022-11-12T12:40:19.453Z,3.63
2022-11-12T12:42:57.075Z,3.90
2022-11-12T12:45:36.405Z,3.70
2022-11-12T12:48:09.429Z,3.50
2022-11-12T12:50:40.244Z,3.70
2022-11-12T12:53:19.807Z,3.17
2022-11-12T12:55:54.904Z,3.20
2022-11-12T12:58:29.269Z,3.20
2022-11-12T13:01:03.693Z,3.30
2022-11-12T13:03:54.376Z,3.53
2022-11-12T13:06:29.180Z,3.80
2022-11-12T13:09:02.219Z,3.30
2022-11-12T13:12:18.033Z,3.00
2022-11-12T13:15:12.326Z,3.07
2022-11-12T13:17:47.308Z,2.77
2022-11-12T13:20:35.690Z,2.73
2022-11-12T13:23:06.646Z,2.50
2022-11-12T13:25:35.356Z,2.80
2022-11-12T13:28:22.113Z,2.90
2022-11-12T13:31:05.875Z,2.47
2022-11-12T13:33:35.523Z,2.57
2022-11-12T13:36:30.020Z,2.40
2022-11-12T13:39:15.461Z,3.87
2022-11-12T13:42:05.354Z,2.80
2022-11-12T13:44:36.497Z,2.40
2022-11-12T13:47:06.875Z,3.00
2022-11-12T13:49:37.657Z,2.50
2022-11-12T13:52:08.087Z,2.83
2022-11-12T13:54:38.535Z,2.63
2022-11-12T13:57:28.503Z,2.43
2022-11-12T14:00:25.675Z,2.30
2022-11-12T14:03:02.229Z,2.27
2022-11-12T14:05:33.427Z,2.17
2022-11-12T14:08:37.292Z,2.37
2022-11-12T14:11:23.193Z,2.20
2022-11-12T14:14:03.239Z,2.27
2022-11-12T14:16:49.480Z,2.47
2022-11-12T14:20:05.247Z,2.40
2022-11-12T14:22:42.187Z,2.70
2022-11-12T14:25:19.556Z,2.70
2022-11-12T14:27:48.796Z,2.70
2022-11-12T14:30:23.636Z,2.60
2022-11-12T14:32:54.414Z,2.90
2022-11-12T14:35:33.463Z,4.87
2022-11-12T14:38:17.085Z,5.43
2022-11-12T14:40:51.780Z,4.33
2022-11-12T14:43:28.504Z,7.80
2022-11-12T14:45:59.833Z,7.37
2022-11-12T14:48:29.158Z,7.60
2022-11-12T14:51:06.134Z,9.07
2022-11-12T14:53:40.755Z,825.07
2022-11-12T14:56:15.342Z,920.37
2022-11-12T14:58:44.248Z,953.67
2022-11-12T15:02:08.421Z,889.97
2022-11-12T15:04:21.832Z,899.30
2022-11-12T15:06:56.808Z,813.93
2022-11-12T15:09:36.001Z,999.90
2022-11-12T15:12:08.449Z,917.90
2022-11-12T15:14:37.644Z,911.30
2022-11-12T15:17:07.204Z,804.13
2022-11-12T15:19:37.215Z,999.90
2022-11-12T15:22:08.427Z,999.90
2022-11-12T15:24:39.237Z,999.90
2022-11-12T15:27:33.656Z,999.90
2022-11-12T15:30:17.459Z,3.60
2022-11-12T15:32:47.082Z,3.73
2022-11-12T15:35:33.180Z,3.43
2022-11-12T15:38:08.459Z,3.47
2022-11-12T15:40:45.052Z,3.40
2022-11-12T15:43:20.459Z,3.63
2022-11-12T15:45:54.107Z,3.60
2022-11-12T15:48:22.897Z,4.10
2022-11-12T15:50:51.843Z,3.53
2022-11-12T15:53:22.490Z,3.87
2022-11-12T15:55:53.438Z,3.57
2022-11-12T15:58:32.680Z,3.37
2022-11-12T16:01:01.783Z,3.50
2022-11-12T16:03:32.870Z,3.17
2022-11-12T16:06:08.380Z,3.70
2022-11-12T16:08:40.802Z,3.97
2022-11-12T16:11:32.430Z,4.30
2022-11-12T16:14:01.586Z,4.00
2022-11-12T16:16:31.092Z,4.00
2022-11-12T16:18:59.965Z,4.13
2022-11-12T16:21:28.855Z,3.93
2022-11-12T16:23:59.110Z,3.50
2022-11-12T16:26:32.079Z,3.63
2022-11-12T16:29:01.177Z,5.00
2022-11-12T16:31:32.606Z,6.23
2022-11-12T16:34:01.754Z,5.30
2022-11-12T16:36:30.976Z,4.83
2022-11-12T16:39:01.255Z,4.27
2022-11-12T16:41:30.069Z,4.27
2022-11-12T16:43:59.088Z,3.87
2022-11-12T16:46:31.432Z,3.80
2022-11-12T16:49:00.245Z,3.73
2022-11-12T16:51:29.292Z,3.97
2022-11-12T16:53:57.981Z,3.67
2022-11-12T16:56:28.220Z,3.80
2022-11-12T16:58:58.113Z,4.40
2022-11-12T17:01:30.193Z,8.03
2022-11-12T17:04:00.390Z,7.80
2022-11-12T17:06:37.895Z,6.10
2022-11-12T17:09:08.301Z,4.83
2022-11-12T17:11:38.664Z,4.67
2022-11-12T17:14:08.799Z,5.10
2022-11-12T17:16:38.228Z,5.20
2022-11-12T17:19:07.171Z,3.97
2022-11-12T17:21:36.090Z,5.00
2022-11-12T17:24:05.463Z,5.60
2022-11-12T17:26:34.825Z,6.03
2022-11-12T17:29:08.016Z,5.80
2022-11-12T17:31:38.152Z,5.50
2022-11-12T17:34:07.483Z,6.40
2022-11-12T17:36:43.604Z,7.20
2022-11-12T17:39:14.143Z,7.13
2022-11-12T17:41:43.497Z,7.30
2022-11-12T17:44:18.091Z,7.73
2022-11-12T17:46:48.746Z,7.30
2022-11-12T17:49:18.364Z,6.40
2022-11-12T17:51:47.720Z,6.03
2022-11-12T17:54:17.022Z,6.13
2022-11-12T17:56:45.961Z,5.00
2022-11-12T17:59:16.926Z,4.63
2022-11-12T18:01:45.800Z,4.30
2022-11-12T18:04:14.776Z,4.23
2022-11-12T18:06:44.168Z,4.80
2022-11-12T18:09:16.265Z,5.37
2022-11-12T18:11:48.999Z,6.70
2022-11-12T18:14:19.302Z,6.70
2022-11-12T18:16:52.494Z,6.90
2022-11-12T18:19:21.801Z,6.97
2022-11-12T18:21:54.140Z,7.60
2022-11-12T18:24:23.845Z,8.07
2022-11-12T18:26:52.808Z,8.73
2022-11-12T18:29:23.052Z,8.00
2022-11-12T18:31:52.014Z,6.60
2022-11-12T18:34:21.967Z,6.67
2022-11-12T18:36:53.417Z,6.10
2022-11-12T18:39:22.675Z,5.77
2022-11-12T18:41:57.415Z,5.70
2022-11-12T18:44:30.777Z,5.60
2022-11-12T18:47:00.431Z,5.30
2022-11-12T18:49:29.461Z,6.03
2022-11-12T18:51:58.612Z,5.60
2022-11-12T18:54:28.543Z,5.93
2022-11-12T18:56:57.738Z,6.23
2022-11-12T18:59:31.566Z,5.67
2022-11-12T19:02:00.776Z,6.03
2022-11-12T19:04:30.405Z,5.80
2022-11-12T19:06:59.448Z,7.67
2022-11-12T19:09:28.705Z,9.77
2022-11-12T19:11:57.670Z,10.30
2022-11-12T19:14:32.145Z,10.07
2022-11-12T19:17:01.175Z,9.23
2022-11-12T19:19:30.044Z,8.50
2022-11-12T19:21:59.108Z,8.63
2022-11-12T19:24:30.975Z,9.07
2022-11-12T19:27:02.474Z,11.97
2022-11-12T19:29:36.989Z,16.03
2022-11-12T19:32:07.883Z,18.87
2022-11-12T19:34:37.470Z,16.93
2022-11-12T19:37:31.684Z,15.87
2022-11-12T19:39:57.879Z,14.87
2022-11-12T19:42:27.860Z,13.70
2022-11-12T19:44:59.350Z,13.70
2022-11-12T19:47:29.491Z,13.70
2022-11-12T19:49:58.390Z,13.37
2022-11-12T19:52:28.576Z,13.37
2022-11-12T19:54:57.436Z,15.80
2022-11-12T19:57:31.568Z,19.00
2022-11-12T20:00:04.292Z,18.60
2022-11-12T20:02:33.688Z,20.90
2022-11-12T20:05:06.427Z,26.40
2022-11-12T20:07:35.422Z,35.80
2022-11-12T20:10:05.039Z,53.77
2022-11-12T20:12:34.176Z,72.67
2022-11-12T20:15:09.061Z,92.50
2022-11-12T20:17:41.856Z,85.57
2022-11-12T20:20:13.445Z,67.70
2022-11-12T20:22:42.298Z,53.00
2022-11-12T20:25:14.358Z,40.30
2022-11-12T20:27:43.603Z,35.70
2022-11-12T20:30:21.007Z,30.17
2022-11-12T20:32:50.806Z,24.97
2022-11-12T20:35:22.370Z,22.03
2022-11-12T20:37:53.416Z,19.80
2022-11-12T20:40:22.509Z,20.90
2022-11-12T20:42:54.233Z,18.37
2022-11-12T20:45:27.389Z,16.93
2022-11-12T20:47:58.521Z,12.47
2022-11-12T20:50:28.392Z,10.27
2022-11-12T20:53:00.197Z,9.50
2022-11-12T20:55:32.694Z,8.90
2022-11-12T20:58:02.388Z,9.30
2022-11-12T21:00:32.903Z,10.10
2022-11-12T21:03:01.733Z,9.33
2022-11-12T21:05:33.654Z,10.80
2022-11-12T21:08:02.925Z,11.10
2022-11-12T21:10:33.076Z,10.77
2022-11-12T21:13:05.128Z,10.97
2022-11-12T21:15:36.978Z,10.93
2022-11-12T21:18:06.218Z,11.30
2022-11-12T21:20:37.794Z,10.80
2022-11-12T21:23:07.253Z,11.50
2022-11-12T21:25:37.141Z,12.40
2022-11-12T21:28:07.184Z,12.23
2022-11-12T21:30:42.362Z,11.57
2022-11-12T21:33:11.256Z,12.90
2022-11-12T21:35:40.656Z,12.97
2022-11-12T21:38:09.707Z,12.53
2022-11-12T21:40:38.883Z,11.87
2022-11-12T21:43:07.925Z,12.90
2022-11-12T21:45:42.245Z,13.40
2022-11-12T21:48:11.285Z,12.30
2022-11-12T21:50:40.218Z,12.43
2022-11-12T21:53:09.475Z,12.40
2022-11-12T21:55:38.707Z,12.43
2022-11-12T21:58:07.786Z,12.20
2022-11-12T22:00:42.629Z,12.23
2022-11-12T22:03:12.474Z,11.97
2022-11-12T22:05:41.389Z,11.33
2022-11-12T22:08:10.514Z,11.47
2022-11-12T22:10:39.193Z,10.43
2022-11-12T22:15:59.107Z,10.57
2022-11-12T22:18:28.533Z,11.80
2022-11-12T22:20:59.726Z,12.30
2022-11-12T22:23:28.437Z,15.03
2022-11-12T22:25:59.222Z,14.50
2022-11-12T22:28:28.591Z,15.40
2022-11-12T22:31:05.308Z,14.43
2022-11-12T22:33:34.196Z,16.40
2022-11-12T22:36:07.374Z,16.23
2022-11-12T22:38:37.000Z,17.73
2022-11-12T22:41:08.021Z,19.07
2022-11-12T22:43:38.098Z,18.60
2022-11-12T22:46:11.793Z,16.77
2022-11-12T22:48:40.948Z,13.90
2022-11-12T22:51:11.945Z,13.37
2022-11-12T22:53:40.819Z,12.83
2022-11-12T22:56:12.249Z,12.40
2022-11-12T22:58:42.708Z,11.43
2022-11-12T23:01:21.834Z,10.53
2022-11-12T23:03:51.417Z,10.17
2022-11-12T23:06:20.454Z,10.70
2022-11-12T23:08:49.129Z,10.47
2022-11-12T23:11:21.075Z,11.60
2022-11-12T23:13:50.419Z,11.00
2022-11-12T23:16:23.426Z,8.33
2022-11-12T23:18:56.720Z,8.47
2022-11-12T23:21:28.428Z,7.33
2022-11-12T23:24:02.366Z,8.00
2022-11-12T23:26:32.536Z,7.57
2022-11-12T23:29:02.028Z,8.00
2022-11-12T23:31:33.488Z,6.70
2022-11-12T23:34:02.642Z,6.93
2022-11-12T23:36:32.367Z,7.73
2022-11-12T23:39:01.373Z,7.93
2022-11-12T23:41:34.077Z,7.93
2022-11-12T23:44:02.642Z,7.13
2022-11-12T23:46:33.272Z,5.93
2022-11-12T23:49:02.100Z,6.90
2022-11-12T23:51:30.645Z,6.73
2022-11-12T23:53:59.354Z,7.00
2022-11-12T23:56:27.948Z,7.87
2022-11-12T23:58:58.487Z,9.00
